Time;durP1;ratioP1;P1;durP2;ratioP2;P2;SDS_P1;SDS_P2;PMS_P1;PMS_P2;Temp;Humidity;BMP_temperature;BMP_pressure;BME280_temperature;BME280_humidity;BME280_pressure;Samples;Min_cycle;Max_cycle;Signal;HPM_P1;HPM_P2
2021/12/14 00:01:54;;;;;;;18.58;16.67;;;22.50;75.80;;;;;;6205455;28;90085;-62
2021/12/14 00:04:58;;;;;;;18.02;16.23;;;22.50;75.80;;;;;;6207292;28;89044;-62
2021/12/14 00:08:20;;;;;;;17.70;15.98;;;22.50;75.80;;;;;;6207400;28;87978;-63
2021/12/14 00:15:04;;;;;;;17.92;16.13;;;22.40;75.70;;;;;;6203640;28;89816;-62
2021/12/14 00:18:08;;;;;;;18.75;16.75;;;22.40;75.70;;;;;;6205010;28;89306;-63
2021/12/14 00:21:19;;;;;;;17.67;15.88;;;22.40;75.70;;;;;;6206984;28;89054;-62
2021/12/14 00:24:26;;;;;;;17.70;15.90;;;22.40;75.70;;;;;;6205997;28;88640;-62
2021/12/14 00:27:29;;;;;;;18.27;16.38;;;22.40;75.70;;;;;;6203801;28;89687;-62
2021/12/14 00:30:33;;;;;;;18.23;16.42;;;22.40;75.70;;;;;;6207109;28;88306;-63
2021/12/14 00:33:36;;;;;;;16.75;15.00;;;22.40;75.70;;;;;;6204152;28;89837;-62
2021/12/14 00:36:39;;;;;;;16.75;15.07;;;22.30;75.70;;;;;;6192804;28;89055;-63
2021/12/14 00:39:43;;;;;;;17.77;15.95;;;22.40;75.70;;;;;;6206374;28;89418;-63
2021/12/14 00:42:47;;;;;;;17.02;15.32;;;22.40;76.00;;;;;;6193347;28;89442;-63
2021/12/14 00:45:49;;;;;;;17.50;15.70;;;22.40;75.70;;;;;;6205477;28;89082;-63
2021/12/14 00:48:52;;;;;;;16.02;14.43;;;22.30;75.60;;;;;;6190595;28;89156;-63
2021/12/14 00:51:55;;;;;;;16.58;14.77;;;22.40;75.70;;;;;;6187895;28;89425;-63
2021/12/14 00:54:59;;;;;;;16.90;15.10;;;22.30;75.50;;;;;;6197997;28;88350;-63
2021/12/14 00:58:01;;;;;;;16.13;14.52;;;22.30;75.50;;;;;;6205554;28;89082;-63
2021/12/14 01:01:07;;;;;;;16.80;15.10;;;22.30;75.50;;;;;;6193852;28;89111;-63
2021/12/14 01:04:12;;;;;;;16.33;14.63;;;22.30;75.60;;;;;;6202574;28;90313;-63
2021/12/14 01:07:17;;;;;;;16.33;14.73;;;22.30;75.60;;;;;;6202595;28;89098;-62
2021/12/14 01:10:24;;;;;;;15.82;14.23;;;22.30;75.60;;;;;;6204815;28;88763;-62
2021/12/14 01:13:29;;;;;;;15.82;14.23;;;22.20;75.50;;;;;;6205731;28;89341;-63
2021/12/14 01:16:49;;;;;;;15.38;13.88;;;22.20;75.50;;;;;;6204997;28;89085;-62
2021/12/14 01:19:56;;;;;;;15.20;13.70;;;22.30;75.50;;;;;;6203968;28;89225;-62
2021/12/14 01:23:01;;;;;;;15.48;13.88;;;22.20;75.50;;;;;;6201140;28;89374;-62
2021/12/14 01:26:09;;;;;;;14.95;13.45;;;22.20;75.50;;;;;;6205581;28;88680;-62
2021/12/14 01:29:14;;;;;;;15.30;13.75;;;22.20;75.50;;;;;;6204226;28;89069;-62
2021/12/14 01:32:18;;;;;;;15.27;13.77;;;22.20;75.50;;;;;;6205710;28;89081;-63
2021/12/14 01:35:27;;;;;;;14.38;12.95;;;22.20;75.50;;;;;;6204096;28;90018;-62
2021/12/14 01:38:36;;;;;;;14.85;13.35;;;22.20;75.50;;;;;;6206078;28;89639;-63
2021/12/14 01:41:41;;;;;;;14.13;12.50;;;22.20;75.60;;;;;;6206044;28;89084;-62
2021/12/14 01:45:04;;;;;;;14.30;12.90;;;22.20;75.60;;;;;;6191370;28;89331;-63
2021/12/14 01:48:06;;;;;;;14.48;12.98;;;22.10;75.50;;;;;;6204388;28;88106;-62
2021/12/14 01:51:10;;;;;;;13.88;12.38;;;22.20;75.50;;;;;;6204557;28;89003;-63
2021/12/14 01:54:15;;;;;;;14.02;12.63;;;22.10;75.50;;;;;;6191492;28;89092;-62
2021/12/14 01:57:21;;;;;;;14.13;12.73;;;22.10;75.60;;;;;;6205345;28;88316;-62
2021/12/14 02:00:33;;;;;;;13.50;12.13;;;22.10;75.70;;;;;;6193069;28;89361;-63
2021/12/14 02:03:39;;;;;;;13.68;12.30;;;22.10;75.60;;;;;;6208434;28;88973;-62
2021/12/14 02:06:41;;;;;;;13.90;12.48;;;22.10;75.70;;;;;;6197711;28;90070;-63
2021/12/14 02:09:44;;;;;;;13.35;12.05;;;22.10;75.60;;;;;;6206329;28;89334;-63
2021/12/14 02:12:47;;;;;;;12.90;11.60;;;22.00;75.60;;;;;;6208769;28;88144;-63
2021/12/14 02:15:50;;;;;;;12.90;11.60;;;22.00;75.60;;;;;;6205098;28;89073;-62
2021/12/14 02:18:56;;;;;;;13.38;12.07;;;22.00;75.50;;;;;;6202131;28;89104;-63
2021/12/14 02:22:00;;;;;;;12.32;11.13;;;22.10;75.50;;;;;;6207502;28;89150;-63
2021/12/14 02:25:04;;;;;;;12.70;11.43;;;22.10;75.50;;;;;;6208150;28;89035;-62
2021/12/14 02:28:11;;;;;;;12.10;10.93;;;22.10;75.50;;;;;;6209031;28;88372;-63
2021/12/14 02:31:16;;;;;;;12.30;11.10;;;22.10;75.50;;;;;;6207265;28;88318;-62
2021/12/14 02:34:18;;;;;;;11.80;10.70;;;22.10;75.40;;;;;;6208858;28;89268;-62
2021/12/14 02:37:35;;;;;;;11.93;10.73;;;22.10;75.40;;;;;;6206078;28;89830;-63
2021/12/14 02:43:58;;;;;;;12.00;10.80;;;22.10;75.40;;;;;;6208202;28;91303;-63
2021/12/14 02:47:06;;;;;;;11.27;10.10;;;22.10;75.40;;;;;;6207520;28;89134;-62
2021/12/14 02:50:09;;;;;;;11.98;10.40;;;22.10;75.40;;;;;;6202750;28;89166;-63
2021/12/14 02:53:14;;;;;;;11.15;10.05;;;22.00;75.40;;;;;;6197457;28;88680;-62
2021/12/14 02:56:21;;;;;;;10.98;9.95;;;22.00;75.40;;;;;;6204351;28;89025;-63
2021/12/14 02:59:26;;;;;;;11.13;10.02;;;22.10;75.40;;;;;;6206910;28;88412;-62
2021/12/14 03:02:32;;;;;;;11.05;9.98;;;22.00;75.40;;;;;;6208354;28;88988;-62
2021/12/14 03:05:37;;;;;;;10.73;9.63;;;22.00;75.50;;;;;;6207488;28;89236;-63
2021/12/14 03:08:48;;;;;;;10.55;9.45;;;22.00;75.50;;;;;;6195381;28;89953;-62
2021/12/14 03:11:50;;;;;;;11.35;10.25;;;21.90;75.40;;;;;;6207173;28;89256;-62
2021/12/14 03:14:55;;;;;;;10.32;9.32;;;22.00;75.50;;;;;;6200886;28;89127;-62
2021/12/14 03:18:00;;;;;;;10.80;9.80;;;21.90;75.50;;;;;;6207457;28;89212;-63
2021/12/14 03:21:06;;;;;;;10.18;9.20;;;22.00;75.50;;;;;;6195038;28;90190;-63
2021/12/14 03:24:13;;;;;;;10.15;9.15;;;21.90;75.50;;;;;;6208281;28;89024;-62
2021/12/14 03:27:15;;;;;;;9.90;8.95;;;21.90;75.50;;;;;;6198215;28;89134;-62
2021/12/14 03:30:28;;;;;;;9.52;8.63;;;21.90;75.50;;;;;;6187671;28;88402;-62
2021/12/14 03:33:35;;;;;;;9.48;8.57;;;21.90;75.60;;;;;;6193946;28;89083;-63
2021/12/14 03:36:42;;;;;;;9.73;8.57;;;21.90;75.50;;;;;;6195693;28;89070;-62
2021/12/14 03:39:49;;;;;;;9.18;8.27;;;21.80;75.50;;;;;;6205225;28;89978;-63
2021/12/14 03:42:51;;;;;;;9.35;8.45;;;21.80;75.50;;;;;;6194678;28;89096;-63
2021/12/14 03:45:54;;;;;;;10.07;9.07;;;21.80;75.50;;;;;;6186399;28;89057;-63
2021/12/14 03:48:56;;;;;;;8.98;8.07;;;21.90;75.60;;;;;;6196551;28;89073;-62
2021/12/14 03:52:00;;;;;;;9.38;8.40;;;21.90;75.50;;;;;;6183664;28;89060;-63
2021/12/14 03:55:10;;;;;;;9.82;8.88;;;21.90;75.50;;;;;;6200319;28;87900;-63
2021/12/14 03:58:16;;;;;;;9.57;8.50;;;21.90;75.40;;;;;;6205727;28;87924;-63
2021/12/14 04:01:22;;;;;;;9.70;8.70;;;21.90;75.40;;;;;;6206906;28;88351;-62
2021/12/14 04:04:27;;;;;;;8.90;8.00;;;21.90;75.30;;;;;;6204477;28;88001;-62
2021/12/14 04:07:30;;;;;;;9.02;8.15;;;21.90;75.30;;;;;;6207581;28;89241;-62
2021/12/14 04:10:36;;;;;;;9.60;8.70;;;21.90;75.20;;;;;;6190617;28;89056;-63
2021/12/14 04:13:41;;;;;;;9.60;8.70;;;21.90;75.20;;;;;;6206170;28;89572;-62
2021/12/14 04:16:49;;;;;;;9.90;8.90;;;21.90;75.30;;;;;;6207170;28;89087;-62
2021/12/14 04:19:51;;;;;;;10.07;9.07;;;21.90;75.30;;;;;;6197682;28;89177;-63
2021/12/14 04:22:53;;;;;;;10.60;9.50;;;21.90;75.40;;;;;;6181184;28;89027;-62
2021/12/14 04:26:00;;;;;;;10.80;9.70;;;21.90;75.40;;;;;;6183298;28;89101;-62
2021/12/14 04:29:03;;;;;;;10.15;9.15;;;21.80;75.40;;;;;;6186218;28;88272;-62
2021/12/14 04:32:08;;;;;;;11.10;10.00;;;21.80;75.40;;;;;;6195506;28;88716;-63
2021/12/14 04:35:10;;;;;;;11.40;10.30;;;21.80;75.40;;;;;;6189461;28;88130;-63
2021/12/14 04:38:20;;;;;;;11.23;10.07;;;21.80;75.40;;;;;;6203251;28;89087;-62
2021/12/14 04:54:46;;;;;;;11.55;10.43;;;21.90;75.30;;;;;;6207749;28;87315;-63
2021/12/14 04:57:50;;;;;;;11.45;10.35;;;21.90;75.40;;;;;;6204990;28;89119;-63
2021/12/14 05:00:52;;;;;;;11.98;10.77;;;21.90;75.30;;;;;;6204490;28;89158;-63
2021/12/14 05:03:58;;;;;;;11.45;10.35;;;21.90;75.20;;;;;;6206071;28;88393;-63
2021/12/14 05:07:24;;;;;;;13.00;11.70;;;21.90;75.20;;;;;;6205737;28;88039;-62
2021/12/14 05:10:24;;;;;;;12.52;11.23;;;21.90;75.20;;;;;;6203561;28;87886;-62
2021/12/14 05:13:30;;;;;;;12.00;10.80;;;21.90;75.20;;;;;;6186900;28;90312;-63
2021/12/14 05:16:33;;;;;;;12.63;11.32;;;21.90;75.20;;;;;;6204727;28;89082;-62
2021/12/14 05:19:37;;;;;;;12.10;10.98;;;21.90;75.10;;;;;;6202990;28;89220;-62
2021/12/14 05:22:44;;;;;;;12.48;11.27;;;22.00;75.20;;;;;;6204216;28;89059;-63
2021/12/14 05:25:46;;;;;;;12.18;11.00;;;22.00;75.10;;;;;;6204235;28;89005;-63
2021/12/14 05:28:49;;;;;;;12.80;11.50;;;22.00;75.10;;;;;;6203790;28;89069;-62
2021/12/14 05:31:52;;;;;;;12.95;11.65;;;22.00;75.20;;;;;;6206088;28;89132;-62
2021/12/14 05:34:54;;;;;;;12.07;10.98;;;22.00;75.70;;;;;;6198169;28;88375;-63
2021/12/14 05:37:57;;;;;;;12.38;11.07;;;22.00;75.20;;;;;;6204468;28;89236;-63
2021/12/14 05:41:10;;;;;;;12.27;11.07;;;22.00;75.30;;;;;;6194741;28;89198;-63
2021/12/14 05:44:17;;;;;;;12.55;11.35;;;22.00;76.00;;;;;;6199967;28;89998;-63
2021/12/14 05:47:20;;;;;;;12.60;11.30;;;22.00;75.90;;;;;;6198435;28;89650;-62
2021/12/14 05:50:27;;;;;;;12.55;11.35;;;22.00;75.70;;;;;;6185059;28;89110;-62
2021/12/14 05:53:32;;;;;;;12.43;11.23;;;22.10;75.70;;;;;;6195962;28;89134;-62
2021/12/14 05:56:34;;;;;;;12.38;11.18;;;22.00;75.50;;;;;;6206358;28;89063;-62
2021/12/14 05:59:38;;;;;;;12.50;11.30;;;22.10;75.40;;;;;;6195314;28;89313;-63
2021/12/14 06:02:41;;;;;;;12.70;11.40;;;22.10;75.40;;;;;;6209311;28;89019;-62
2021/12/14 06:05:43;;;;;;;12.73;11.32;;;22.10;75.40;;;;;;6193353;28;88332;-62
2021/12/14 06:08:45;;;;;;;12.07;10.88;;;22.10;75.30;;;;;;6203704;28;89479;-62
2021/12/14 06:11:51;;;;;;;11.98;10.75;;;22.10;75.40;;;;;;6203835;28;87958;-63
2021/12/14 06:14:56;;;;;;;12.00;10.75;;;22.10;75.40;;;;;;6202861;28;89975;-63
2021/12/14 06:17:58;;;;;;;12.48;11.18;;;22.10;75.30;;;;;;6208601;28;89070;-62
2021/12/14 06:21:00;;;;;;;12.27;10.80;;;22.10;75.40;;;;;;6209522;28;89046;-63
2021/12/14 06:24:05;;;;;;;13.07;10.70;;;22.10;75.40;;;;;;6207814;28;89092;-63
2021/12/14 06:27:13;;;;;;;12.10;10.82;;;22.10;75.40;;;;;;6208343;28;89088;-62
2021/12/14 06:30:18;;;;;;;11.80;10.60;;;22.10;75.40;;;;;;6184536;28;88068;-62
2021/12/14 06:33:21;;;;;;;12.05;10.85;;;22.10;75.30;;;;;;6196907;28;89027;-63
2021/12/14 06:37:04;;;;;;;11.55;10.35;;;22.10;75.30;;;;;;6208381;28;88332;-62
2021/12/14 06:40:27;;;;;;;11.88;10.68;;;22.10;75.20;;;;;;6204482;28;88108;-63
2021/12/14 06:43:32;;;;;;;11.75;10.55;;;22.10;75.20;;;;;;6185059;28;89357;-63
2021/12/14 06:46:37;;;;;;;13.68;10.77;;;22.20;75.20;;;;;;6194347;28;90061;-63
2021/12/14 06:49:40;;;;;;;11.15;10.02;;;22.10;75.20;;;;;;6195507;28;89357;-63
2021/12/14 06:52:42;;;;;;;11.60;10.45;;;22.20;75.20;;;;;;6194545;28;89655;-63
2021/12/14 06:55:46;;;;;;;11.38;10.18;;;22.20;75.20;;;;;;6196371;28;89115;-62
2021/12/14 06:58:53;;;;;;;11.15;10.05;;;22.20;75.20;;;;;;6206467;28;89315;-63
2021/12/14 07:01:59;;;;;;;11.63;10.48;;;22.20;75.10;;;;;;6187159;28;89100;-62
2021/12/14 07:05:01;;;;;;;10.70;9.63;;;22.20;75.00;;;;;;6203451;28;89070;-63
2021/12/14 07:08:10;;;;;;;11.65;10.45;;;22.30;75.00;;;;;;6194940;28;88604;-63
2021/12/14 07:11:17;;;;;;;11.40;9.75;;;22.30;75.00;;;;;;6207102;28;89255;-62
2021/12/14 07:14:28;;;;;;;10.50;9.40;;;22.30;75.00;;;;;;6208381;28;89095;-62
2021/12/14 07:17:41;;;;;;;10.77;9.68;;;22.30;74.90;;;;;;6206521;28;90343;-62
2021/12/14 07:20:46;;;;;;;10.98;9.93;;;22.30;74.90;;;;;;6207609;28;89317;-63
2021/12/14 07:23:48;;;;;;;10.80;9.70;;;22.30;74.90;;;;;;6208261;28;89024;-63
2021/12/14 07:26:51;;;;;;;10.63;9.63;;;22.30;74.90;;;;;;6208146;28;89087;-62
2021/12/14 07:29:55;;;;;;;10.32;9.30;;;22.30;74.90;;;;;;6206197;28;89352;-62
2021/12/14 07:33:02;;;;;;;10.35;9.25;;;22.30;74.90;;;;;;6208843;28;89052;-63
2021/12/14 07:36:06;;;;;;;10.25;9.25;;;22.30;74.90;;;;;;6194543;28;89179;-62
2021/12/14 07:39:10;;;;;;;9.85;8.85;;;22.30;74.90;;;;;;6207621;28;88322;-63
2021/12/14 07:42:17;;;;;;;9.85;8.85;;;22.30;74.90;;;;;;6202127;28;89182;-63
2021/12/14 07:45:27;;;;;;;9.70;8.77;;;22.30;74.90;;;;;;6207387;28;89318;-62
2021/12/14 07:48:44;;;;;;;10.07;9.07;;;22.30;74.90;;;;;;6198527;28;88912;-62
2021/12/14 07:51:48;;;;;;;9.68;8.73;;;22.40;74.90;;;;;;6202646;28;89114;-63
2021/12/14 07:54:53;;;;;;;9.40;8.50;;;22.40;74.80;;;;;;6199670;28;89022;-63
2021/12/14 07:57:55;;;;;;;9.60;8.70;;;22.40;74.90;;;;;;6189570;28;89072;-62
2021/12/14 08:00:57;;;;;;;9.98;8.98;;;22.30;74.70;;;;;;6186375;28;89038;-62
2021/12/14 08:04:10;;;;;;;9.30;8.25;;;22.30;74.70;;;;;;6200609;28;89131;-62
2021/12/14 08:07:22;;;;;;;9.27;8.38;;;22.30;74.70;;;;;;6206201;28;89644;-63
2021/12/14 08:10:28;;;;;;;9.07;8.18;;;22.40;74.80;;;;;;6207150;28;88247;-62
2021/12/14 08:13:30;;;;;;;8.93;8.13;;;22.40;74.70;;;;;;6205993;28;89734;-62
2021/12/14 08:16:44;;;;;;;8.25;7.45;;;22.40;74.80;;;;;;6200563;28;90917;-63
2021/12/14 08:19:52;;;;;;;8.30;7.50;;;22.40;74.70;;;;;;6206260;28;90340;-63
2021/12/14 08:23:14;;;;;;;8.57;7.60;;;22.40;74.70;;;;;;6198085;28;87983;-62
2021/12/14 08:26:19;;;;;;;8.73;7.80;;;22.40;74.70;;;;;;6197826;28;88974;-62
2021/12/14 08:29:24;;;;;;;8.15;7.35;;;22.40;74.70;;;;;;6201650;28;89374;-62
2021/12/14 08:32:31;;;;;;;7.80;7.10;;;22.50;74.70;;;;;;6192531;28;89032;-63
2021/12/14 08:35:41;;;;;;;8.18;7.38;;;22.40;74.60;;;;;;6207389;28;88985;-63
2021/12/14 08:38:43;;;;;;;8.10;7.35;;;22.50;74.60;;;;;;6205625;28;89101;-62
2021/12/14 08:41:51;;;;;;;8.48;7.68;;;22.50;74.50;;;;;;6194625;28;88678;-63
2021/12/14 08:44:56;;;;;;;7.30;6.60;;;22.50;74.50;;;;;;6204454;28;89251;-62
2021/12/14 08:48:07;;;;;;;8.18;7.38;;;22.50;74.50;;;;;;6184123;28;88868;-62
2021/12/14 08:51:16;;;;;;;8.32;7.63;;;22.50;74.50;;;;;;6204124;28;89019;-63
2021/12/14 08:54:22;;;;;;;7.93;7.13;;;22.50;74.50;;;;;;6194981;28;89259;-62
2021/12/14 08:57:28;;;;;;;8.05;7.32;;;22.50;74.50;;;;;;6194583;28;88770;-63
2021/12/14 09:00:36;;;;;;;7.93;7.13;;;22.50;74.50;;;;;;6207730;28;87815;-63
2021/12/14 09:03:44;;;;;;;7.22;6.53;;;22.50;74.50;;;;;;6200053;28;89313;-63
2021/12/14 09:06:51;;;;;;;7.38;6.78;;;22.50;74.50;;;;;;6192853;28;87943;-62
2021/12/14 09:09:54;;;;;;;6.85;6.20;;;22.50;74.50;;;;;;6193394;28;89068;-62
2021/12/14 09:13:01;;;;;;;7.57;6.88;;;22.50;74.50;;;;;;6211107;28;88292;-63
2021/12/14 09:16:07;;;;;;;7.18;6.50;;;22.50;74.50;;;;;;6208782;28;88091;-62
2021/12/14 09:19:13;;;;;;;7.22;6.53;;;22.50;74.50;;;;;;6207874;28;89002;-63
2021/12/14 09:22:20;;;;;;;7.72;6.93;;;22.50;74.50;;;;;;6209106;28;91289;-63
2021/12/14 09:25:26;;;;;;;7.32;6.63;;;22.50;74.50;;;;;;6209089;28;88998;-63
2021/12/14 09:28:28;;;;;;;7.05;6.38;;;22.50;74.40;;;;;;6195800;28;89121;-62
2021/12/14 09:31:35;;;;;;;6.75;6.15;;;22.50;75.30;;;;;;6198337;28;89379;-62
2021/12/14 09:34:41;;;;;;;6.20;5.68;;;22.60;75.40;;;;;;6211227;28;87884;-62
2021/12/14 09:37:46;;;;;;;6.72;6.13;;;22.50;74.40;;;;;;6211626;28;89160;-62
2021/12/14 09:40:54;;;;;;;6.35;5.75;;;22.50;74.40;;;;;;6209621;28;89163;-63
2021/12/14 09:43:56;;;;;;;6.40;5.80;;;22.50;74.40;;;;;;6212446;28;88551;-63
2021/12/14 09:47:17;;;;;;;6.70;6.10;;;22.60;74.50;;;;;;6196869;28;87920;-63
2021/12/14 09:50:23;;;;;;;6.28;5.60;;;22.60;74.50;;;;;;6191354;28;89077;-62
2021/12/14 09:53:28;;;;;;;6.07;5.47;;;22.60;74.40;;;;;;6204252;28;90038;-62
2021/12/14 09:56:34;;;;;;;6.53;5.65;;;22.60;74.40;;;;;;6203051;28;89437;-62
2021/12/14 09:59:36;;;;;;;5.93;5.35;;;22.60;74.40;;;;;;6189947;28;89299;-62
2021/12/14 10:06:05;;;;;;;5.60;5.07;;;22.60;74.40;;;;;;6209070;28;87294;-62
2021/12/14 10:09:11;;;;;;;6.25;5.65;;;22.60;74.30;;;;;;6208395;28;89159;-62
2021/12/14 10:12:41;;;;;;;6.05;5.45;;;22.60;74.40;;;;;;6208294;28;89928;-63
2021/12/14 10:15:46;;;;;;;5.55;5.05;;;22.60;74.40;;;;;;6200345;28;87959;-63
2021/12/14 10:18:51;;;;;;;5.70;5.20;;;22.60;74.30;;;;;;6196232;28;89415;-63
2021/12/14 10:21:56;;;;;;;5.38;4.88;;;22.60;74.20;;;;;;6189179;28;89562;-63
2021/12/14 10:25:05;;;;;;;5.30;4.80;;;22.60;74.20;;;;;;6209567;28;90131;-62
2021/12/14 10:28:07;;;;;;;5.22;4.72;;;22.60;74.20;;;;;;6197806;28;89099;-62
2021/12/14 10:31:13;;;;;;;5.38;4.88;;;22.60;74.20;;;;;;6194184;28;89448;-63
2021/12/14 10:34:19;;;;;;;5.13;4.63;;;22.60;74.20;;;;;;6210091;28;89015;-63
2021/12/14 10:37:25;;;;;;;5.20;4.70;;;22.60;74.20;;;;;;6207789;28;89193;-62
2021/12/14 10:43:55;;;;;;;5.25;4.75;;;22.60;74.20;;;;;;6204198;28;87363;-63
2021/12/14 10:46:57;;;;;;;5.20;4.70;;;22.60;74.20;;;;;;6210307;28;88162;-63
2021/12/14 10:50:01;;;;;;;4.90;4.45;;;22.70;74.20;;;;;;6208492;28;89343;-62
2021/12/14 10:53:06;;;;;;;4.93;4.53;;;22.70;74.20;;;;;;6190610;28;89193;-63
2021/12/14 10:56:13;;;;;;;4.82;4.43;;;22.70;74.20;;;;;;6197639;28;90066;-62
2021/12/14 10:59:22;;;;;;;5.07;4.68;;;22.70;74.20;;;;;;6206807;28;88967;-62
2021/12/14 11:02:25;;;;;;;4.70;4.30;;;22.70;74.20;;;;;;6207770;28;88310;-62
2021/12/14 11:05:28;;;;;;;4.65;4.25;;;22.70;74.20;;;;;;6201670;28;89072;-63
2021/12/14 11:08:40;;;;;;;4.63;4.18;;;22.70;74.20;;;;;;6182688;28;89044;-63
2021/12/14 11:11:49;;;;;;;4.30;3.90;;;22.60;74.10;;;;;;6195911;28;88894;-63
2021/12/14 11:14:55;;;;;;;4.68;4.28;;;22.70;74.20;;;;;;6196251;28;89075;-63
2021/12/14 11:18:11;;;;;;;4.03;3.72;;;22.70;74.10;;;;;;6197616;28;88375;-63
2021/12/14 11:21:19;;;;;;;4.05;3.65;;;22.70;74.10;;;;;;6201560;28;89211;-63
2021/12/14 11:24:33;;;;;;;4.30;3.90;;;22.70;74.10;;;;;;6194354;28;89080;-62
2021/12/14 11:27:40;;;;;;;4.38;3.97;;;22.70;74.10;;;;;;6200236;28;90063;-63
2021/12/14 11:30:47;;;;;;;4.32;3.92;;;22.70;74.00;;;;;;6193362;28;89450;-63
2021/12/14 11:33:52;;;;;;;3.97;3.67;;;22.70;74.00;;;;;;6205669;28;89027;-63
2021/12/14 11:36:58;;;;;;;4.07;3.78;;;22.70;74.00;;;;;;6207602;28;89551;-63
2021/12/14 11:40:01;;;;;;;4.28;3.88;;;22.70;74.00;;;;;;6208272;28;89104;-63
2021/12/14 11:43:13;;;;;;;4.28;3.88;;;22.70;73.90;;;;;;6208419;28;89374;-63
2021/12/14 11:46:15;;;;;;;4.03;3.67;;;22.80;74.00;;;;;;6206922;28;89071;-63
2021/12/14 11:49:18;;;;;;;4.30;3.90;;;22.70;73.90;;;;;;6195934;28;87434;-62
2021/12/14 11:52:38;;;;;;;3.55;3.25;;;22.80;73.90;;;;;;6209043;28;89086;-62
2021/12/14 11:55:44;;;;;;;4.20;3.80;;;22.80;74.00;;;;;;6197038;28;89133;-63
2021/12/14 11:58:51;;;;;;;4.00;3.70;;;22.70;73.80;;;;;;6193780;28;90007;-63
2021/12/14 12:01:55;;;;;;;3.75;3.45;;;22.70;73.80;;;;;;6195013;28;89205;-63
2021/12/14 12:04:57;;;;;;;3.80;3.45;;;22.70;73.80;;;;;;6197994;28;89060;-62
2021/12/14 12:11:37;;;;;;;3.50;3.20;;;22.70;73.90;;;;;;6195723;28;87193;-63
2021/12/14 12:14:44;;;;;;;3.72;3.42;;;22.70;73.90;;;;;;6196517;28;89123;-63
2021/12/14 12:17:48;;;;;;;3.83;3.53;;;22.70;74.00;;;;;;6187221;28;89101;-63
2021/12/14 12:20:50;;;;;;;3.55;3.25;;;22.70;74.00;;;;;;6194444;28;88353;-63
2021/12/14 12:23:52;;;;;;;3.53;3.22;;;22.70;74.00;;;;;;6205627;28;88418;-63
2021/12/14 12:26:54;;;;;;;3.53;3.22;;;22.70;74.00;;;;;;6194194;28;87363;-63
2021/12/14 12:30:29;;;;;;;3.45;3.15;;;22.70;74.00;;;;;;6207189;28;90418;-63
2021/12/14 12:33:33;;;;;;;3.47;3.17;;;22.70;74.00;;;;;;6181874;28;89580;-63
2021/12/14 12:36:43;;;;;;;3.40;3.10;;;22.70;74.00;;;;;;6205450;28;89087;-63
2021/12/14 12:39:49;;;;;;;3.55;3.25;;;22.70;74.00;;;;;;6195495;28;89082;-63
2021/12/14 12:42:51;;;;;;;3.40;3.10;;;22.80;74.00;;;;;;6207364;28;89009;-63
2021/12/14 12:46:01;;;;;;;3.08;2.88;;;22.70;74.00;;;;;;6194793;28;87937;-63
2021/12/14 12:49:11;;;;;;;3.30;3.00;;;22.70;74.00;;;;;;6205718;28;89097;-63
2021/12/14 12:52:15;;;;;;;3.20;2.95;;;22.70;74.00;;;;;;6193666;28;88125;-63
2021/12/14 12:55:20;;;;;;;3.22;2.92;;;22.70;74.00;;;;;;6203562;28;89082;-63
2021/12/14 12:58:24;;;;;;;3.20;2.90;;;22.80;74.00;;;;;;6198845;28;89488;-63
2021/12/14 13:01:28;;;;;;;2.85;2.65;;;22.70;74.00;;;;;;6187588;28;89877;-63
2021/12/14 13:04:39;;;;;;;3.03;2.83;;;22.70;74.00;;;;;;6205756;28;88842;-63
2021/12/14 13:07:45;;;;;;;3.05;2.85;;;22.70;74.00;;;;;;6206710;28;89415;-63
2021/12/14 13:10:51;;;;;;;3.03;2.80;;;22.80;74.00;;;;;;6206932;28;89082;-62
2021/12/14 13:13:56;;;;;;;2.80;2.60;;;22.80;74.00;;;;;;6193943;28;89125;-63
2021/12/14 13:17:03;;;;;;;3.10;2.90;;;22.80;74.00;;;;;;6207203;28;88640;-63
2021/12/14 13:20:08;;;;;;;2.90;2.70;;;22.80;73.90;;;;;;6194468;28;88097;-63
2021/12/14 13:23:10;;;;;;;2.60;2.40;;;22.80;73.80;;;;;;6205157;28;88355;-62
2021/12/14 13:26:28;;;;;;;2.70;2.50;;;22.80;73.80;;;;;;6205053;28;89422;-62
2021/12/14 13:29:47;;;;;;;2.85;2.65;;;22.80;73.80;;;;;;6197710;28;89091;-63
2021/12/14 13:32:50;;;;;;;2.70;2.50;;;22.80;73.80;;;;;;6194185;28;89996;-63
2021/12/14 13:35:52;;;;;;;2.80;2.60;;;22.80;73.80;;;;;;6198462;28;89089;-63
2021/12/14 13:38:57;;;;;;;2.58;2.38;;;22.80;73.80;;;;;;6193542;28;89370;-63
2021/12/14 13:42:30;;;;;;;2.75;2.55;;;22.80;73.80;;;;;;6199670;28;88025;-63
2021/12/14 13:45:36;;;;;;;2.30;2.17;;;22.80;73.80;;;;;;6182494;28;88870;-63
2021/12/14 13:48:41;;;;;;;2.72;2.53;;;22.80;73.90;;;;;;6203367;28;89166;-63
2021/12/14 13:51:44;;;;;;;2.58;2.38;;;22.80;73.80;;;;;;6192285;28;89186;-63
2021/12/14 13:55:19;;;;;;;2.60;2.40;;;22.80;73.80;;;;;;6193408;28;88100;-63
2021/12/14 13:58:25;;;;;;;2.60;2.40;;;22.80;73.80;;;;;;6200475;28;89262;-63
2021/12/14 14:01:29;;;;;;;2.40;2.20;;;22.80;73.80;;;;;;6204351;28;88000;-63
2021/12/14 14:04:34;;;;;;;2.40;2.20;;;22.80;73.90;;;;;;6206695;28;89976;-63
2021/12/14 14:07:36;;;;;;;2.50;2.30;;;22.80;73.90;;;;;;6187294;28;88963;-63
2021/12/14 14:10:39;;;;;;;2.38;2.17;;;22.80;73.80;;;;;;6195581;28;89083;-63
2021/12/14 14:13:43;;;;;;;2.60;2.40;;;22.80;73.80;;;;;;6210409;28;89366;-63
2021/12/14 14:16:50;;;;;;;2.70;2.50;;;22.80;73.80;;;;;;6195698;28;89194;-63
2021/12/14 14:19:57;;;;;;;2.22;2.10;;;22.80;73.90;;;;;;6208764;28;88268;-63
2021/12/14 14:23:11;;;;;;;2.30;2.10;;;22.80;73.80;;;;;;6208289;28;87976;-62
2021/12/14 14:26:17;;;;;;;2.40;2.20;;;22.80;73.80;;;;;;6200747;28;88356;-63
2021/12/14 14:29:21;;;;;;;2.50;2.30;;;22.80;73.80;;;;;;6202958;28;88982;-63
2021/12/14 14:32:29;;;;;;;2.20;2.00;;;22.80;73.80;;;;;;6203701;28;89086;-62
2021/12/14 14:35:42;;;;;;;2.22;2.03;;;22.80;73.80;;;;;;6198864;28;88972;-62
2021/12/14 14:38:45;;;;;;;2.40;2.20;;;22.80;73.80;;;;;;6195279;28;89012;-62
2021/12/14 14:41:50;;;;;;;2.35;2.15;;;22.80;73.80;;;;;;6193143;28;88066;-62
2021/12/14 14:44:56;;;;;;;2.28;2.08;;;22.80;73.70;;;;;;6202574;28;89058;-63
2021/12/14 14:47:58;;;;;;;2.08;1.90;;;22.90;73.70;;;;;;6210104;28;89117;-63
2021/12/14 14:51:01;;;;;;;2.20;2.03;;;22.90;73.70;;;;;;6195672;28;89118;-63
2021/12/14 14:54:23;;;;;;;2.00;1.90;;;22.90;73.70;;;;;;6197059;28;88419;-63
2021/12/14 14:57:48;;;;;;;2.30;2.10;;;22.90;73.70;;;;;;6198716;28;88311;-62
2021/12/14 15:01:09;;;;;;;2.20;2.00;;;22.90;73.60;;;;;;6196308;28;89132;-63
2021/12/14 15:04:11;;;;;;;2.40;2.20;;;22.90;73.60;;;;;;6208195;28;88837;-63
2021/12/14 15:07:15;;;;;;;2.00;1.90;;;22.90;73.60;;;;;;6205926;28;90042;-63
2021/12/14 15:10:18;;;;;;;2.00;1.90;;;22.90;73.60;;;;;;6209595;28;88241;-63
2021/12/14 15:13:29;;;;;;;2.17;2.00;;;22.90;73.60;;;;;;6194204;28;88287;-63
2021/12/14 15:16:47;;;;;;;2.20;2.00;;;22.90;73.70;;;;;;6193299;28;89298;-62
2021/12/14 15:19:50;;;;;;;2.05;1.95;;;22.90;73.70;;;;;;6187562;28;89075;-63
2021/12/14 15:23:01;;;;;;;2.00;1.90;;;22.90;73.70;;;;;;6201396;28;89367;-63
2021/12/14 15:26:13;;;;;;;2.00;1.75;;;22.90;73.70;;;;;;6201138;28;89384;-63
2021/12/14 15:29:28;;;;;;;1.85;1.75;;;22.90;73.70;;;;;;6185230;28;88370;-62
2021/12/14 15:32:35;;;;;;;2.10;1.90;;;22.90;73.70;;;;;;6189781;28;89088;-63
2021/12/14 15:35:51;;;;;;;1.90;1.80;;;22.90;73.70;;;;;;6204330;28;89314;-62
2021/12/14 15:39:04;;;;;;;2.00;1.90;;;22.90;73.70;;;;;;6193880;28;90389;-63
2021/12/14 15:42:21;;;;;;;1.92;1.83;;;22.90;73.70;;;;;;6193464;28;88821;-63
2021/12/14 15:45:41;;;;;;;2.00;1.80;;;22.90;73.70;;;;;;6207846;28;89107;-62
2021/12/14 15:48:46;;;;;;;1.85;1.75;;;22.90;73.70;;;;;;6200294;28;89058;-63
2021/12/14 15:51:52;;;;;;;1.80;1.70;;;22.90;73.70;;;;;;6202541;28;89092;-63
2021/12/14 15:54:55;;;;;;;1.83;1.73;;;22.90;73.70;;;;;;6206524;28;89129;-63
2021/12/14 15:57:57;;;;;;;1.98;1.88;;;22.90;74.50;;;;;;6207904;28;89163;-63
2021/12/14 16:01:03;;;;;;;1.80;1.70;;;22.90;73.70;;;;;;6207523;28;87251;-63
2021/12/14 16:04:07;;;;;;;2.13;2.00;;;22.90;73.60;;;;;;6206260;28;89333;-63
2021/12/14 16:07:12;;;;;;;1.95;1.75;;;22.90;73.60;;;;;;6195586;28;87917;-63
2021/12/14 16:10:21;;;;;;;1.98;1.88;;;22.90;73.60;;;;;;6205495;28;89958;-62
2021/12/14 16:16:45;;;;;;;1.75;1.63;;;22.90;73.50;;;;;;6197509;28;87252;-62
2021/12/14 16:19:49;;;;;;;1.75;1.65;;;22.90;73.50;;;;;;6204144;28;89075;-62
2021/12/14 16:22:54;;;;;;;1.75;1.65;;;23.00;73.60;;;;;;6205873;28;89161;-62
2021/12/14 16:25:59;;;;;;;1.70;1.60;;;22.90;73.40;;;;;;6193924;28;88990;-62
2021/12/14 16:29:05;;;;;;;1.95;1.85;;;22.90;73.40;;;;;;6189631;28;88011;-62
2021/12/14 16:32:17;;;;;;;1.88;1.70;;;23.00;73.50;;;;;;6196515;28;88350;-63
2021/12/14 16:35:19;;;;;;;2.05;1.95;;;23.00;73.40;;;;;;6198411;28;89440;-63
2021/12/14 16:38:26;;;;;;;1.90;1.80;;;22.90;73.40;;;;;;6207853;28;89104;-62